createdAt,value
2022-10-19T00:01:43.414Z,16.40
2022-10-19T00:04:10.187Z,16.30
2022-10-19T00:06:37.518Z,16.40
2022-10-19T00:09:12.890Z,16.40
2022-10-19T00:11:42.891Z,16.40
2022-10-19T00:14:14.264Z,16.40
2022-10-19T00:16:42.824Z,16.30
2022-10-19T00:19:15.183Z,16.30
2022-10-19T00:21:42.437Z,16.20
2022-10-19T00:24:09.449Z,16.20
2022-10-19T00:26:36.661Z,16.20
2022-10-19T00:29:05.502Z,16.10
2022-10-19T00:31:32.562Z,16.00
2022-10-19T00:33:59.644Z,16.00
2022-10-19T00:36:29.921Z,16.00
2022-10-19T00:38:57.658Z,16.00
2022-10-19T00:41:28.018Z,16.10
2022-10-19T00:44:05.882Z,15.80
2022-10-19T00:46:36.106Z,15.90
2022-10-19T00:49:11.089Z,15.90
2022-10-19T00:51:42.105Z,16.00
2022-10-19T00:54:09.866Z,16.00
2022-10-19T00:56:41.054Z,15.90
2022-10-19T00:59:09.501Z,15.90
2022-10-19T01:01:36.556Z,16.00
2022-10-19T01:04:04.658Z,15.90
2022-10-19T01:06:32.070Z,15.80
2022-10-19T01:08:58.833Z,16.00
2022-10-19T01:11:34.267Z,15.90
2022-10-19T01:14:14.466Z,15.90
2022-10-19T01:17:06.988Z,15.90
2022-10-19T01:20:04.274Z,15.90
2022-10-19T01:22:31.010Z,15.80
2022-10-19T01:25:03.793Z,15.70
2022-10-19T01:27:30.633Z,15.80
2022-10-19T01:30:02.507Z,15.70
2022-10-19T01:32:58.801Z,15.80
2022-10-19T01:36:02.438Z,15.70
2022-10-19T01:38:37.357Z,15.70
2022-10-19T01:41:10.052Z,15.50
2022-10-19T01:43:54.893Z,15.70
2022-10-19T01:46:32.323Z,15.80
2022-10-19T01:49:07.731Z,15.80
2022-10-19T01:51:40.168Z,15.90
2022-10-19T01:54:12.464Z,15.80
2022-10-19T01:56:42.220Z,15.70
2022-10-19T01:59:11.471Z,15.70
2022-10-19T02:01:43.892Z,15.60
2022-10-19T02:04:13.367Z,15.60
2022-10-19T02:06:40.784Z,15.60
2022-10-19T02:09:07.981Z,15.60
2022-10-19T02:11:37.254Z,15.60
2022-10-19T02:14:13.125Z,15.80
2022-10-19T02:16:50.121Z,15.90
2022-10-19T02:19:18.255Z,16.00
2022-10-19T02:21:45.322Z,16.20
2022-10-19T02:24:12.150Z,16.20
2022-10-19T02:26:40.172Z,16.30
2022-10-19T02:29:07.989Z,16.40
2022-10-19T02:31:35.128Z,16.20
2022-10-19T02:34:02.141Z,16.20
2022-10-19T02:36:29.112Z,16.30
2022-10-19T02:38:55.845Z,16.20
2022-10-19T02:41:37.209Z,16.20
2022-10-19T02:44:12.312Z,16.20
2022-10-19T02:46:46.049Z,16.20
2022-10-19T02:49:13.745Z,16.10
2022-10-19T02:51:57.629Z,16.20
2022-10-19T02:54:25.045Z,16.30
2022-10-19T02:56:52.157Z,16.30
2022-10-19T02:59:18.978Z,16.10
2022-10-19T03:01:45.863Z,16.20
2022-10-19T03:04:12.632Z,16.20
2022-10-19T03:06:39.341Z,16.20
2022-10-19T03:09:06.269Z,16.20
2022-10-19T03:11:33.866Z,16.20
2022-10-19T03:14:00.599Z,16.20
2022-10-19T03:16:27.331Z,16.20
2022-10-19T03:18:54.773Z,17.30
2022-10-19T03:21:21.608Z,16.10
2022-10-19T03:23:48.341Z,16.30
2022-10-19T03:26:16.258Z,16.40
2022-10-19T03:28:43.139Z,16.40
2022-10-19T03:31:10.033Z,16.50
2022-10-19T03:33:36.929Z,16.50
2022-10-19T03:36:24.340Z,16.50
2022-10-19T03:38:52.865Z,16.30
2022-10-19T03:41:21.212Z,16.10
2022-10-19T03:43:48.097Z,16.10
2022-10-19T03:46:15.325Z,17.10
2022-10-19T03:48:42.513Z,16.20
2022-10-19T03:51:12.561Z,16.20
2022-10-19T03:53:40.629Z,16.10
2022-10-19T03:56:18.531Z,16.00
2022-10-19T03:58:46.860Z,16.00
2022-10-19T04:01:16.619Z,15.90
2022-10-19T04:03:43.589Z,15.80
2022-10-19T04:06:19.605Z,15.90
2022-10-19T04:08:49.960Z,15.70
2022-10-19T04:11:18.976Z,15.70
2022-10-19T04:13:57.631Z,15.80
2022-10-19T04:16:26.167Z,15.90
2022-10-19T04:18:52.985Z,15.80
2022-10-19T04:21:21.811Z,15.80
2022-10-19T04:23:49.589Z,15.80
2022-10-19T04:26:16.961Z,15.80
2022-10-19T04:28:43.747Z,15.80
2022-10-19T04:31:11.553Z,15.90
2022-10-19T04:33:39.516Z,16.10
2022-10-19T04:36:08.915Z,16.10
2022-10-19T04:38:36.638Z,16.10
2022-10-19T04:41:08.464Z,16.20
2022-10-19T04:43:35.596Z,16.30
2022-10-19T04:46:07.297Z,16.40
2022-10-19T04:48:35.702Z,16.40
2022-10-19T04:51:02.956Z,16.40
2022-10-19T04:53:29.758Z,16.40
2022-10-19T04:55:56.916Z,16.40
2022-10-19T04:58:24.054Z,16.30
2022-10-19T05:00:51.402Z,16.30
2022-10-19T05:03:18.193Z,16.20
2022-10-19T05:05:44.963Z,16.30
2022-10-19T05:08:11.756Z,16.20
2022-10-19T05:10:38.853Z,16.30
2022-10-19T05:13:05.690Z,16.30
2022-10-19T05:15:32.478Z,16.40
2022-10-19T05:17:59.406Z,16.20
2022-10-19T05:20:27.196Z,16.00
2022-10-19T05:22:53.916Z,16.10
2022-10-19T05:25:20.708Z,16.30
2022-10-19T05:27:54.180Z,16.30
2022-10-19T05:30:24.260Z,16.30
2022-10-19T05:32:51.027Z,16.30
2022-10-19T05:35:21.510Z,16.30
2022-10-19T05:37:53.544Z,16.20
2022-10-19T05:40:20.248Z,16.30
2022-10-19T05:42:47.017Z,16.20
2022-10-19T05:45:13.725Z,16.20
2022-10-19T05:47:40.452Z,16.10
2022-10-19T05:50:07.441Z,16.20
2022-10-19T05:52:34.209Z,16.20
2022-10-19T05:55:00.917Z,16.10
2022-10-19T05:57:27.646Z,16.20
2022-10-19T05:59:56.674Z,16.20
2022-10-19T06:02:23.688Z,16.30
2022-10-19T06:04:50.434Z,16.40
2022-10-19T06:07:17.170Z,16.40
2022-10-19T06:09:43.999Z,16.40
2022-10-19T06:12:10.733Z,16.30
2022-10-19T06:14:37.536Z,16.20
2022-10-19T06:17:04.321Z,16.10
2022-10-19T06:19:31.017Z,16.10
2022-10-19T06:21:57.809Z,16.20
2022-10-19T06:24:24.578Z,16.00
2022-10-19T06:26:51.398Z,16.00
2022-10-19T06:29:18.124Z,16.00
2022-10-19T06:31:46.357Z,16.00
2022-10-19T06:34:13.277Z,16.00
2022-10-19T06:36:40.144Z,16.10
2022-10-19T06:39:06.895Z,16.10
2022-10-19T06:41:34.617Z,16.20
2022-10-19T06:44:01.433Z,16.20
2022-10-19T06:46:28.414Z,16.10
2022-10-19T06:49:01.054Z,16.10
2022-10-19T06:51:29.473Z,16.00
2022-10-19T06:53:57.493Z,15.80
2022-10-19T06:56:26.120Z,15.80
2022-10-19T06:58:53.812Z,15.80
2022-10-19T07:01:20.786Z,16.10
2022-10-19T07:03:47.558Z,16.20
2022-10-19T07:06:14.577Z,16.20
2022-10-19T07:08:42.586Z,16.10
2022-10-19T07:11:12.328Z,16.10
2022-10-19T07:13:39.187Z,16.40
2022-10-19T07:16:15.919Z,16.40
2022-10-19T07:18:47.377Z,16.40
2022-10-19T07:21:15.789Z,16.40
2022-10-19T07:23:43.915Z,16.50
2022-10-19T07:26:23.713Z,16.50
2022-10-19T07:28:51.194Z,16.50
2022-10-19T07:31:21.988Z,16.40
2022-10-19T07:33:56.998Z,16.60
2022-10-19T07:36:24.713Z,16.60
2022-10-19T07:38:52.293Z,16.60
2022-10-19T07:41:23.053Z,16.70
2022-10-19T07:43:51.120Z,16.60
2022-10-19T07:46:23.437Z,16.60
2022-10-19T07:48:50.205Z,16.50
2022-10-19T07:51:18.513Z,16.50
2022-10-19T07:53:46.171Z,16.60
2022-10-19T07:56:16.086Z,16.70
2022-10-19T07:58:43.131Z,16.80
2022-10-19T08:01:18.972Z,16.70
2022-10-19T08:06:33.583Z,17.00
2022-10-19T08:09:00.816Z,17.10
2022-10-19T08:11:33.273Z,17.10
2022-10-19T08:14:03.186Z,17.10
2022-10-19T08:16:39.398Z,17.20
2022-10-19T08:19:09.691Z,17.20
2022-10-19T08:21:38.169Z,17.10
2022-10-19T08:24:06.033Z,16.90
2022-10-19T08:26:34.512Z,16.80
2022-10-19T08:29:06.375Z,16.90
2022-10-19T08:31:33.210Z,16.70
2022-10-19T08:34:00.266Z,16.80
2022-10-19T08:36:28.331Z,16.90
2022-10-19T08:38:55.069Z,16.90
2022-10-19T08:41:26.553Z,16.90
2022-10-19T08:44:15.744Z,16.80
2022-10-19T08:47:07.761Z,16.80
2022-10-19T08:49:34.982Z,16.70
2022-10-19T08:52:12.288Z,16.80
2022-10-19T08:54:54.932Z,17.00
2022-10-19T08:57:50.728Z,17.10
2022-10-19T09:00:54.660Z,17.20
2022-10-19T09:03:54.496Z,17.30
2022-10-19T09:06:49.208Z,17.50
2022-10-19T09:09:18.465Z,17.50
2022-10-19T09:11:49.105Z,17.30
2022-10-19T09:14:21.878Z,17.40
2022-10-19T09:16:48.783Z,17.40
2022-10-19T09:19:25.532Z,17.30
2022-10-19T09:21:57.268Z,17.10
2022-10-19T09:24:35.718Z,17.10
2022-10-19T09:27:02.969Z,17.20
2022-10-19T09:29:29.680Z,17.20
2022-10-19T09:32:00.179Z,17.20
2022-10-19T09:34:33.657Z,17.40
2022-10-19T09:37:00.961Z,17.20
2022-10-19T09:39:30.645Z,17.00
2022-10-19T09:42:13.149Z,17.00
2022-10-19T09:44:40.010Z,16.90
2022-10-19T09:47:32.570Z,16.80
2022-10-19T09:50:24.311Z,17.00
2022-10-19T09:52:57.150Z,17.30
2022-10-19T09:55:44.025Z,17.20
2022-10-19T09:58:13.704Z,17.10
2022-10-19T10:00:52.267Z,17.20
2022-10-19T10:03:43.507Z,17.40
2022-10-19T10:06:15.519Z,17.50
2022-10-19T10:08:48.571Z,17.50
2022-10-19T10:11:23.905Z,17.70
2022-10-19T10:13:53.505Z,17.70
2022-10-19T10:16:29.243Z,17.70
2022-10-19T10:18:59.120Z,17.90
2022-10-19T10:21:37.150Z,17.70
2022-10-19T10:24:18.541Z,17.60
2022-10-19T10:26:52.235Z,17.60
2022-10-19T10:29:21.604Z,17.50
2022-10-19T10:32:12.935Z,17.50
2022-10-19T10:34:51.321Z,17.50
2022-10-19T10:37:36.568Z,17.50
2022-10-19T10:40:05.428Z,17.40
2022-10-19T10:42:52.102Z,17.60
2022-10-19T10:45:49.548Z,17.70
2022-10-19T10:48:53.381Z,17.50
2022-10-19T10:51:32.402Z,17.40
2022-10-19T10:54:22.653Z,17.50
2022-10-19T10:57:15.745Z,17.40
2022-10-19T11:00:26.642Z,17.30
2022-10-19T11:02:57.003Z,17.30
2022-10-19T11:05:33.425Z,17.60
2022-10-19T11:08:12.301Z,17.60
2022-10-19T11:11:19.648Z,17.50
2022-10-19T11:13:53.873Z,17.50
2022-10-19T11:16:41.981Z,17.40
2022-10-19T11:19:22.288Z,17.30
2022-10-19T11:21:57.589Z,17.30
2022-10-19T11:24:46.336Z,17.30
2022-10-19T11:27:28.496Z,17.50
2022-10-19T11:30:29.486Z,17.50
2022-10-19T11:33:05.117Z,17.70
2022-10-19T11:35:54.432Z,18.10
2022-10-19T11:38:49.531Z,18.40
2022-10-19T11:41:26.897Z,18.40
2022-10-19T11:44:16.534Z,18.20
2022-10-19T11:46:55.582Z,18.20
2022-10-19T11:49:47.137Z,18.40
2022-10-19T11:52:28.904Z,18.40
2022-10-19T11:55:32.597Z,18.50
2022-10-19T11:58:16.181Z,18.50
2022-10-19T12:00:52.601Z,18.50
2022-10-19T12:04:03.852Z,18.40
2022-10-19T12:06:48.555Z,18.30
2022-10-19T12:09:21.340Z,18.20
2022-10-19T12:11:54.288Z,18.30
2022-10-19T12:14:27.921Z,18.10
2022-10-19T12:16:59.983Z,18.00
2022-10-19T12:19:36.448Z,18.00
2022-10-19T12:22:05.635Z,17.80
2022-10-19T12:24:34.413Z,17.60
2022-10-19T12:27:01.667Z,17.60
2022-10-19T12:29:41.120Z,17.70
2022-10-19T12:32:12.586Z,17.70
2022-10-19T12:34:59.174Z,17.70
2022-10-19T12:37:34.834Z,17.70
2022-10-19T12:40:38.513Z,17.70
2022-10-19T12:43:20.958Z,17.60
2022-10-19T12:46:07.637Z,17.70
2022-10-19T12:48:36.415Z,17.90
2022-10-19T12:51:12.432Z,18.00
2022-10-19T12:53:44.377Z,18.00
2022-10-19T12:56:13.356Z,18.10
2022-10-19T12:58:47.670Z,18.10
2022-10-19T13:01:20.998Z,18.00
2022-10-19T13:03:51.191Z,18.00
2022-10-19T13:06:24.076Z,18.00
2022-10-19T13:08:53.687Z,17.90
2022-10-19T13:11:21.775Z,17.80
2022-10-19T13:13:56.847Z,17.90
2022-10-19T13:16:29.542Z,17.90
2022-10-19T13:19:14.401Z,18.00
2022-10-19T13:21:54.388Z,18.20
2022-10-19T13:24:24.216Z,18.10
2022-10-19T13:27:02.851Z,18.10
2022-10-19T13:29:39.231Z,18.10
2022-10-19T13:32:43.421Z,18.10
2022-10-19T13:35:26.658Z,18.20
2022-10-19T13:38:15.370Z,18.20
2022-10-19T13:40:48.216Z,18.30
2022-10-19T13:43:19.739Z,18.40
2022-10-19T13:46:30.810Z,18.50
2022-10-19T13:49:32.666Z,18.30
2022-10-19T13:52:18.544Z,18.20
2022-10-19T13:54:51.245Z,18.30
2022-10-19T13:57:22.503Z,18.30
2022-10-19T14:00:04.377Z,18.20
2022-10-19T14:02:46.337Z,18.30
2022-10-19T14:05:44.545Z,18.40
2022-10-19T14:08:20.126Z,18.30
2022-10-19T14:11:00.944Z,18.40
2022-10-19T14:13:28.712Z,18.40
2022-10-19T14:15:57.807Z,18.50
2022-10-19T14:18:34.406Z,18.60
2022-10-19T14:21:06.447Z,18.50
2022-10-19T14:23:35.617Z,18.40
2022-10-19T14:26:12.069Z,18.60
2022-10-19T14:28:40.545Z,18.60
2022-10-19T14:31:10.156Z,18.50
2022-10-19T14:33:40.656Z,18.40
2022-10-19T14:36:14.758Z,18.30
2022-10-19T14:38:45.482Z,18.40
2022-10-19T14:41:28.877Z,18.40
2022-10-19T14:43:59.972Z,18.30
2022-10-19T14:46:30.854Z,18.40
2022-10-19T14:49:03.910Z,18.20
2022-10-19T14:51:42.233Z,18.40
2022-10-19T14:54:43.026Z,18.50
2022-10-19T14:57:18.007Z,18.50
2022-10-19T14:59:49.944Z,18.50
2022-10-19T15:02:46.096Z,18.50
2022-10-19T15:05:23.679Z,18.50
2022-10-19T15:07:51.125Z,18.50
2022-10-19T15:10:22.883Z,18.60
2022-10-19T15:12:51.521Z,18.70
2022-10-19T15:15:28.055Z,18.70
2022-10-19T15:17:56.354Z,18.70
2022-10-19T15:20:27.363Z,18.70
2022-10-19T15:22:55.238Z,18.70
2022-10-19T15:25:33.857Z,18.70
2022-10-19T15:28:41.711Z,18.70
2022-10-19T15:31:16.268Z,18.80
2022-10-19T15:33:55.959Z,18.60
2022-10-19T15:36:24.284Z,18.80
2022-10-19T15:39:11.854Z,18.90
2022-10-19T15:41:49.055Z,18.80
2022-10-19T15:44:39.823Z,18.80
2022-10-19T15:47:15.615Z,18.90
2022-10-19T15:49:42.585Z,18.80
2022-10-19T15:52:20.443Z,18.80
2022-10-19T15:54:48.457Z,18.80
2022-10-19T15:57:34.291Z,18.70
2022-10-19T16:00:08.328Z,18.80
2022-10-19T16:02:35.475Z,18.80
2022-10-19T16:05:02.384Z,18.80
2022-10-19T16:07:31.963Z,18.70
2022-10-19T16:09:59.185Z,18.70
2022-10-19T16:12:26.929Z,18.60
2022-10-19T16:14:54.711Z,18.70
2022-10-19T16:17:21.577Z,18.70
2022-10-19T16:19:48.784Z,18.70
2022-10-19T16:22:16.517Z,18.80
2022-10-19T16:24:43.506Z,18.70
2022-10-19T16:27:14.950Z,18.80
2022-10-19T16:29:43.496Z,18.70
2022-10-19T16:32:10.400Z,18.80
2022-10-19T16:34:37.964Z,18.80
2022-10-19T16:37:06.907Z,18.70
2022-10-19T16:39:35.010Z,18.80
2022-10-19T16:42:01.877Z,18.90
2022-10-19T16:44:28.648Z,18.90
2022-10-19T16:46:59.280Z,18.80
2022-10-19T16:49:28.780Z,18.80
2022-10-19T16:51:57.428Z,18.80
2022-10-19T16:54:26.665Z,18.80
2022-10-19T16:56:55.490Z,18.80
2022-10-19T16:59:22.376Z,18.80
2022-10-19T17:01:49.427Z,18.70
2022-10-19T17:04:17.955Z,18.60
2022-10-19T17:06:45.067Z,18.60
2022-10-19T17:11:58.984Z,18.60
2022-10-19T17:14:25.905Z,18.60
2022-10-19T17:16:52.836Z,18.70
2022-10-19T17:19:19.639Z,18.80
2022-10-19T17:21:47.001Z,18.80
2022-10-19T17:24:21.674Z,18.80
2022-10-19T17:26:51.176Z,18.80
2022-10-19T17:29:18.941Z,18.90
2022-10-19T17:31:46.555Z,18.90
2022-10-19T17:34:13.494Z,18.90
2022-10-19T17:36:46.323Z,18.80
2022-10-19T17:39:25.634Z,18.80
2022-10-19T17:42:01.140Z,18.80
2022-10-19T17:44:29.964Z,18.80
2022-10-19T17:46:56.861Z,18.80
2022-10-19T17:49:23.672Z,18.80
2022-10-19T17:51:52.668Z,18.70
2022-10-19T17:54:19.521Z,18.80
2022-10-19T17:56:46.356Z,18.50
2022-10-19T17:59:13.596Z,18.50
2022-10-19T18:01:40.869Z,18.30
2022-10-19T18:04:07.781Z,18.40
2022-10-19T18:06:36.613Z,18.30
2022-10-19T18:09:06.294Z,18.30
2022-10-19T18:11:37.179Z,18.30
2022-10-19T18:14:04.581Z,18.40
2022-10-19T18:16:37.658Z,18.50
2022-10-19T18:19:05.985Z,18.50
2022-10-19T18:21:40.969Z,18.60
2022-10-19T18:24:15.692Z,18.70
2022-10-19T18:26:43.168Z,18.60
2022-10-19T18:29:20.936Z,18.60
2022-10-19T18:31:54.944Z,18.60
2022-10-19T18:34:24.610Z,18.60
2022-10-19T18:36:52.271Z,18.60
2022-10-19T18:39:19.287Z,18.50
2022-10-19T18:41:48.203Z,18.50
2022-10-19T18:44:15.017Z,18.40
2022-10-19T18:46:41.808Z,18.40
2022-10-19T18:49:10.446Z,18.40
2022-10-19T18:51:37.317Z,18.40
2022-10-19T18:54:04.479Z,18.40
2022-10-19T18:56:33.309Z,18.30
2022-10-19T18:59:00.308Z,18.30
2022-10-19T19:01:28.618Z,18.20
2022-10-19T19:03:57.739Z,18.20
2022-10-19T19:06:30.030Z,18.20
2022-10-19T19:08:58.132Z,18.30
2022-10-19T19:11:35.852Z,18.20
2022-10-19T19:14:15.601Z,18.20
2022-10-19T19:16:45.019Z,18.20
2022-10-19T19:19:13.677Z,18.20
2022-10-19T19:21:43.677Z,18.20
2022-10-19T19:24:13.853Z,18.20
2022-10-19T19:26:43.564Z,18.20
2022-10-19T19:29:10.534Z,18.20
2022-10-19T19:31:37.427Z,18.20
2022-10-19T19:34:06.257Z,18.30
2022-10-19T19:36:33.169Z,18.30
2022-10-19T19:39:00.090Z,18.40
2022-10-19T19:41:28.779Z,18.40
2022-10-19T19:43:57.521Z,18.40
2022-10-19T19:46:24.519Z,18.40
2022-10-19T19:48:51.297Z,18.40
2022-10-19T19:51:20.409Z,18.40
2022-10-19T19:53:48.401Z,18.50
2022-10-19T19:56:16.462Z,18.50
2022-10-19T19:58:45.112Z,18.40
2022-10-19T20:01:19.955Z,18.40
2022-10-19T20:03:47.653Z,18.40
2022-10-19T20:06:17.252Z,18.40
2022-10-19T20:08:45.588Z,18.30
2022-10-19T20:11:14.208Z,18.30
2022-10-19T20:13:40.989Z,18.20
2022-10-19T20:16:13.083Z,18.30
2022-10-19T20:18:41.212Z,18.20
2022-10-19T20:21:08.011Z,18.10
2022-10-19T20:23:34.821Z,18.00
2022-10-19T20:26:01.893Z,18.00
2022-10-19T20:28:31.466Z,17.90
2022-10-19T20:31:06.948Z,18.00
2022-10-19T20:33:35.733Z,18.00
2022-10-19T20:36:08.021Z,18.00
2022-10-19T20:38:36.392Z,17.90
2022-10-19T20:41:07.804Z,17.80
2022-10-19T20:43:36.866Z,17.70
2022-10-19T20:46:04.644Z,17.60
2022-10-19T20:48:32.088Z,17.40
2022-10-19T20:51:15.061Z,17.40
2022-10-19T20:53:43.568Z,17.40
2022-10-19T20:56:11.185Z,17.40
2022-10-19T20:58:43.376Z,17.40
2022-10-19T21:01:15.514Z,17.20
2022-10-19T21:03:47.213Z,17.10
2022-10-19T21:06:14.564Z,17.20
2022-10-19T21:08:41.691Z,17.20
2022-10-19T21:11:19.301Z,17.10
2022-10-19T21:13:46.929Z,16.90
2022-10-19T21:16:18.549Z,17.00
2022-10-19T21:18:46.775Z,16.80
2022-10-19T21:21:22.116Z,16.70
2022-10-19T21:23:53.553Z,16.70
2022-10-19T21:26:20.737Z,16.70
2022-10-19T21:28:49.842Z,16.80
2022-10-19T21:31:17.674Z,16.80
2022-10-19T21:33:45.117Z,16.70
2022-10-19T21:36:13.658Z,16.60
2022-10-19T21:38:41.688Z,16.60
2022-10-19T21:41:20.799Z,16.50
2022-10-19T21:43:50.649Z,16.60
2022-10-19T21:46:20.537Z,16.40
2022-10-19T21:48:47.802Z,16.50
2022-10-19T21:51:37.395Z,16.50
2022-10-19T21:54:07.436Z,16.60
2022-10-19T21:56:34.572Z,16.60
2022-10-19T21:59:01.456Z,16.40
2022-10-19T22:01:29.711Z,16.40
2022-10-19T22:03:57.526Z,16.40
2022-10-19T22:06:25.428Z,16.40
2022-10-19T22:08:52.727Z,16.30
2022-10-19T22:11:20.217Z,16.20
2022-10-19T22:13:47.148Z,16.10
2022-10-19T22:16:19.664Z,16.10
2022-10-19T22:18:47.859Z,16.00
2022-10-19T22:21:18.390Z,16.10
2022-10-19T22:23:45.176Z,16.20
2022-10-19T22:26:17.719Z,16.20
2022-10-19T22:28:44.971Z,16.20
2022-10-19T22:31:12.364Z,16.10
2022-10-19T22:33:39.400Z,16.10
2022-10-19T22:36:08.696Z,16.10
2022-10-19T22:38:35.957Z,16.10
2022-10-19T22:41:02.915Z,16.20
2022-10-19T22:43:29.660Z,16.10
2022-10-19T22:45:56.432Z,16.10
2022-10-19T22:48:23.181Z,16.00
2022-10-19T22:50:54.250Z,15.90
2022-10-19T22:53:22.376Z,15.90
2022-10-19T22:55:49.555Z,16.00
2022-10-19T22:58:17.322Z,15.90
2022-10-19T23:00:44.117Z,15.90
2022-10-19T23:03:10.928Z,15.90
2022-10-19T23:05:37.742Z,15.90
2022-10-19T23:08:04.757Z,15.80
2022-10-19T23:10:32.640Z,15.80
2022-10-19T23:12:59.605Z,15.80
2022-10-19T23:15:26.600Z,15.70
2022-10-19T23:17:53.482Z,15.70
2022-10-19T23:20:20.264Z,15.70
2022-10-19T23:22:47.057Z,15.60
2022-10-19T23:25:13.780Z,15.70
2022-10-19T23:27:40.471Z,15.80
2022-10-19T23:30:07.727Z,15.80
2022-10-19T23:32:34.460Z,15.70
2022-10-19T23:35:02.001Z,15.70
2022-10-19T23:37:28.705Z,15.60
2022-10-19T23:39:55.624Z,15.70
2022-10-19T23:42:22.325Z,15.70
2022-10-19T23:44:49.236Z,15.60
2022-10-19T23:47:16.176Z,15.60
2022-10-19T23:49:42.981Z,15.60
2022-10-19T23:52:09.789Z,15.40
2022-10-19T23:54:36.517Z,15.60
2022-10-19T23:57:03.353Z,15.60
2022-10-19T23:59:30.313Z,15.70
